createdAt,value
2023-01-23T00:04:20.237Z,23.50
2023-01-23T00:06:50.156Z,21.00
2023-01-23T00:09:17.510Z,25.60
2023-01-23T00:11:44.518Z,24.90
2023-01-23T00:14:16.031Z,25.00
2023-01-23T00:16:44.239Z,22.70
2023-01-23T00:19:11.335Z,22.00
2023-01-23T00:21:39.132Z,19.90
2023-01-23T00:24:08.731Z,20.40
2023-01-23T00:26:35.840Z,20.40
2023-01-23T00:29:03.506Z,19.30
2023-01-23T00:31:33.426Z,19.90
2023-01-23T00:34:22.562Z,22.00
2023-01-23T00:36:49.679Z,21.60
2023-01-23T00:39:18.838Z,22.90
2023-01-23T00:41:46.467Z,23.00
2023-01-23T00:44:14.139Z,22.70
2023-01-23T00:46:41.100Z,21.50
2023-01-23T00:49:08.263Z,24.90
2023-01-23T00:51:35.358Z,24.70
2023-01-23T00:54:02.642Z,20.20
2023-01-23T00:56:30.376Z,21.80
2023-01-23T00:58:57.406Z,18.60
2023-01-23T01:01:25.559Z,18.10
2023-01-23T07:33:45.496Z,12.80
2023-01-23T07:36:14.301Z,11.40
2023-01-23T07:38:42.320Z,12.50
2023-01-23T07:41:09.644Z,10.10
2023-01-23T07:43:37.662Z,10.40
2023-01-23T07:46:05.183Z,12.00
2023-01-23T07:48:36.887Z,11.40
2023-01-23T07:51:04.609Z,13.40
2023-01-23T07:53:32.019Z,11.80
2023-01-23T07:55:59.382Z,12.40
2023-01-23T07:58:26.751Z,11.50
2023-01-23T08:00:53.922Z,9.60
2023-01-23T08:03:21.120Z,11.80
2023-01-23T08:05:50.448Z,12.40
2023-01-23T08:08:20.020Z,13.10
2023-01-23T08:10:49.484Z,13.00
2023-01-23T08:13:17.010Z,12.70
2023-01-23T08:15:45.995Z,13.10
2023-01-23T08:18:14.636Z,10.70
2023-01-23T08:20:41.837Z,12.00
2023-01-23T08:23:10.374Z,12.40
2023-01-23T08:25:37.912Z,11.90
2023-01-23T08:28:05.345Z,15.10
2023-01-23T08:30:33.248Z,14.10
2023-01-23T08:33:04.375Z,12.90
2023-01-23T08:35:32.858Z,13.10
2023-01-23T08:38:02.026Z,14.50
2023-01-23T08:40:29.872Z,12.70
2023-01-23T08:42:58.232Z,13.30
2023-01-23T08:45:26.177Z,12.90
2023-01-23T08:47:53.461Z,13.20
2023-01-23T08:50:21.320Z,14.60
2023-01-23T08:52:48.462Z,13.80
2023-01-23T08:55:16.128Z,15.50
2023-01-23T08:57:44.337Z,15.30
2023-01-23T09:00:12.961Z,14.60
2023-01-23T09:02:40.678Z,14.80
2023-01-23T09:05:08.463Z,15.50
2023-01-23T09:07:37.485Z,15.30
2023-01-23T09:12:35.586Z,14.20
2023-01-23T09:15:03.018Z,13.90
2023-01-23T09:17:30.955Z,16.90
2023-01-23T09:20:00.462Z,16.60
2023-01-23T09:22:27.731Z,15.70
2023-01-23T09:24:54.897Z,16.20
2023-01-23T09:27:22.430Z,15.10
2023-01-23T09:29:50.135Z,13.40
2023-01-23T09:32:17.300Z,15.60
2023-01-23T09:34:48.547Z,13.90
2023-01-23T09:39:47.476Z,14.50
2023-01-23T09:42:27.498Z,13.40
2023-01-23T09:45:01.649Z,12.80
2023-01-23T09:47:54.010Z,14.70
2023-01-23T09:50:33.467Z,14.90
2023-01-23T09:53:12.392Z,14.70
2023-01-23T09:55:45.109Z,13.20
2023-01-23T09:58:38.230Z,15.10
2023-01-23T10:01:05.799Z,13.30
2023-01-23T10:03:35.329Z,13.50
2023-01-23T10:06:15.387Z,13.30
2023-01-23T10:09:00.704Z,13.90
2023-01-23T10:11:46.971Z,13.70
2023-01-23T10:14:34.750Z,12.70
2023-01-23T10:17:15.168Z,13.50
2023-01-23T16:39:57.627Z,15.90
2023-01-23T16:44:55.416Z,16.10
2023-01-23T16:47:28.007Z,13.70
2023-01-23T16:49:55.794Z,15.00
2023-01-23T16:52:24.374Z,15.50
2023-01-23T16:54:52.655Z,16.10
2023-01-23T16:57:20.381Z,15.30
2023-01-23T16:59:49.894Z,15.40
2023-01-23T17:02:35.495Z,16.90
2023-01-23T17:05:03.085Z,18.50
2023-01-23T17:07:32.163Z,17.60
2023-01-23T17:10:00.074Z,18.00
2023-01-23T17:12:29.895Z,15.80
2023-01-23T17:14:57.934Z,16.10
2023-01-23T17:17:34.998Z,15.70
2023-01-23T17:20:05.063Z,16.70
2023-01-23T17:22:38.453Z,16.80
2023-01-23T17:25:17.184Z,16.90
2023-01-23T17:27:48.694Z,15.40
2023-01-23T17:30:24.982Z,19.50
2023-01-23T17:32:59.292Z,17.60
2023-01-23T17:35:37.040Z,17.50
2023-01-23T17:38:06.570Z,15.30
2023-01-23T17:40:43.630Z,18.20
2023-01-23T17:43:36.008Z,18.50
2023-01-23T17:46:06.068Z,17.30
2023-01-23T17:48:59.570Z,17.90
2023-01-23T17:51:27.966Z,17.80
2023-01-23T17:53:56.752Z,15.90
2023-01-23T17:56:25.907Z,16.40
2023-01-23T17:58:56.383Z,14.70
2023-01-23T18:01:25.080Z,15.60
2023-01-23T18:03:54.598Z,15.80
2023-01-23T18:06:23.411Z,18.20
2023-01-23T18:08:50.955Z,17.60
2023-01-23T18:11:23.534Z,15.20
2023-01-23T18:14:21.123Z,15.80
2023-01-23T18:16:53.410Z,14.00
2023-01-23T18:19:24.145Z,14.10
2023-01-23T18:21:56.020Z,14.40
2023-01-23T18:24:27.576Z,14.60
2023-01-23T18:27:15.524Z,16.50
2023-01-23T18:29:48.151Z,13.60
2023-01-23T18:32:37.284Z,13.10
2023-01-23T18:35:15.070Z,14.00
2023-01-23T18:38:03.557Z,13.70
2023-01-23T18:40:59.569Z,14.50
2023-01-23T18:43:32.707Z,12.80
2023-01-23T18:46:01.563Z,14.60
2023-01-23T18:48:33.750Z,14.60
2023-01-23T18:51:45.178Z,13.70
2023-01-23T18:54:31.351Z,11.80
2023-01-23T18:57:27.415Z,10.60
2023-01-23T19:00:00.636Z,12.30
2023-01-23T19:02:49.947Z,12.90
2023-01-23T19:05:29.673Z,13.00
